createdAt,value
2023-03-31T00:00:24.751Z,13.91
2023-03-31T00:02:51.705Z,13.73
2023-03-31T00:05:18.804Z,13.65
2023-03-31T00:07:45.461Z,13.65
2023-03-31T00:10:18.264Z,13.78
2023-03-31T00:12:45.551Z,13.89
2023-03-31T00:15:12.305Z,13.61
2023-03-31T00:17:38.927Z,13.46
2023-03-31T00:20:05.851Z,13.52
2023-03-31T00:22:32.410Z,13.73
2023-03-31T00:24:58.975Z,13.69
2023-03-31T00:27:25.618Z,13.59
2023-03-31T00:29:52.217Z,13.57
2023-03-31T00:32:18.766Z,13.65
2023-03-31T00:34:45.360Z,13.66
2023-03-31T00:37:11.940Z,13.59
2023-03-31T00:39:38.528Z,13.57
2023-03-31T00:42:05.433Z,13.58
2023-03-31T00:44:32.042Z,13.51
2023-03-31T00:46:58.639Z,13.66
2023-03-31T00:49:25.210Z,13.54
2023-03-31T00:51:51.798Z,13.38
2023-03-31T00:54:18.472Z,13.45
2023-03-31T00:56:45.078Z,13.52
2023-03-31T00:59:11.764Z,13.62
2023-03-31T01:01:38.403Z,13.71
2023-03-31T01:04:05.077Z,13.71
2023-03-31T01:06:31.720Z,13.65
2023-03-31T01:08:58.312Z,13.71
2023-03-31T01:11:24.915Z,13.61
2023-03-31T01:13:51.498Z,13.73
2023-03-31T01:16:18.129Z,13.79
2023-03-31T01:18:45.380Z,13.59
2023-03-31T01:21:12.005Z,13.78
2023-03-31T01:23:38.550Z,13.89
2023-03-31T01:26:05.249Z,13.62
2023-03-31T01:28:31.927Z,13.66
2023-03-31T01:30:58.615Z,13.57
2023-03-31T01:33:25.241Z,13.60
2023-03-31T01:35:51.910Z,13.38
2023-03-31T01:38:18.508Z,13.35
2023-03-31T01:40:45.230Z,13.31
2023-03-31T01:43:11.828Z,13.18
2023-03-31T01:45:38.422Z,13.18
2023-03-31T01:48:05.026Z,13.16
2023-03-31T01:50:31.671Z,13.12
2023-03-31T01:52:58.230Z,13.22
2023-03-31T01:55:25.116Z,13.19
2023-03-31T01:57:51.720Z,13.03
2023-03-31T02:00:18.328Z,13.17
2023-03-31T02:02:44.945Z,13.16
2023-03-31T02:05:11.597Z,13.22
2023-03-31T02:07:38.230Z,13.19
2023-03-31T02:10:04.858Z,12.66
2023-03-31T02:12:31.473Z,12.61
2023-03-31T02:14:58.041Z,12.71
2023-03-31T02:17:24.692Z,12.73
2023-03-31T02:19:51.362Z,12.32
2023-03-31T02:22:17.915Z,12.30
2023-03-31T02:24:45.477Z,12.53
2023-03-31T02:27:12.043Z,12.58
2023-03-31T02:29:39.051Z,12.48
2023-03-31T02:32:05.606Z,12.38
2023-03-31T02:34:32.267Z,12.25
2023-03-31T02:36:58.855Z,12.10
2023-03-31T02:39:25.458Z,12.18
2023-03-31T02:41:52.066Z,12.12
2023-03-31T02:44:18.787Z,12.18
2023-03-31T02:46:45.457Z,12.18
2023-03-31T02:49:12.043Z,12.00
2023-03-31T02:51:38.605Z,11.87
2023-03-31T02:54:05.178Z,11.88
2023-03-31T02:56:31.858Z,12.13
2023-03-31T02:58:58.466Z,11.94
2023-03-31T03:01:25.114Z,11.82
2023-03-31T03:03:52.434Z,12.02
2023-03-31T03:06:19.015Z,12.05
2023-03-31T03:08:45.582Z,11.77
2023-03-31T03:11:12.167Z,11.60
2023-03-31T03:13:38.721Z,11.65
2023-03-31T03:16:05.522Z,11.82
2023-03-31T03:18:32.333Z,11.81
2023-03-31T03:20:58.902Z,11.83
2023-03-31T03:23:25.789Z,11.77
2023-03-31T03:25:52.386Z,11.69
2023-03-31T03:28:19.059Z,11.51
2023-03-31T03:30:45.717Z,11.18
2023-03-31T03:33:13.530Z,11.30
2023-03-31T03:35:40.908Z,11.48
2023-03-31T03:38:07.503Z,11.50
2023-03-31T03:40:34.203Z,11.22
2023-03-31T03:43:00.764Z,10.99
2023-03-31T03:45:27.321Z,11.01
2023-03-31T03:47:53.989Z,11.03
2023-03-31T03:50:20.589Z,11.11
2023-03-31T03:52:47.225Z,11.14
2023-03-31T03:55:13.942Z,11.15
2023-03-31T03:57:40.560Z,11.12
2023-03-31T04:00:07.120Z,11.18
2023-03-31T04:02:33.756Z,11.16
2023-03-31T04:05:00.481Z,11.23
2023-03-31T04:07:27.124Z,11.18
2023-03-31T04:09:53.699Z,11.21
2023-03-31T04:12:20.268Z,11.06
2023-03-31T04:14:46.847Z,11.18
2023-03-31T04:17:13.415Z,10.75
2023-03-31T04:19:40.298Z,10.57
2023-03-31T04:22:06.864Z,10.58
2023-03-31T04:24:33.607Z,10.69
2023-03-31T04:27:00.243Z,10.59
2023-03-31T04:29:26.827Z,10.72
2023-03-31T04:31:53.434Z,10.81
2023-03-31T04:34:20.003Z,10.73
2023-03-31T04:36:46.708Z,10.81
2023-03-31T04:39:13.254Z,10.63
2023-03-31T04:41:39.871Z,10.36
2023-03-31T04:44:06.757Z,10.61
2023-03-31T04:46:33.520Z,10.74
2023-03-31T04:49:00.156Z,10.57
2023-03-31T04:51:26.743Z,10.53
2023-03-31T04:53:53.323Z,10.37
2023-03-31T04:56:19.874Z,10.58
2023-03-31T04:58:46.466Z,10.90
2023-03-31T05:01:13.109Z,10.95
2023-03-31T05:03:39.799Z,11.06
2023-03-31T05:06:06.496Z,11.26
2023-03-31T05:08:33.185Z,11.31
2023-03-31T05:10:59.866Z,11.32
2023-03-31T05:13:26.481Z,11.26
2023-03-31T05:15:53.036Z,11.15
2023-03-31T05:18:19.611Z,10.97
2023-03-31T05:20:46.543Z,11.00
2023-03-31T05:23:13.169Z,11.02
2023-03-31T05:25:39.744Z,11.23
2023-03-31T05:28:06.341Z,10.98
2023-03-31T05:30:32.911Z,10.99
2023-03-31T05:32:59.750Z,11.10
2023-03-31T05:35:26.416Z,11.02
2023-03-31T05:37:53.077Z,11.18
2023-03-31T05:40:19.721Z,11.22
2023-03-31T05:42:46.587Z,11.29
2023-03-31T05:45:13.167Z,11.21
2023-03-31T05:47:39.786Z,11.04
2023-03-31T05:50:06.510Z,11.06
2023-03-31T05:52:33.073Z,11.37
2023-03-31T05:54:59.689Z,11.38
2023-03-31T05:57:26.335Z,11.34
2023-03-31T05:59:52.985Z,11.64
2023-03-31T06:02:19.847Z,11.93
2023-03-31T06:04:46.703Z,11.92
2023-03-31T06:07:13.843Z,12.02
2023-03-31T06:09:40.538Z,11.81
2023-03-31T06:12:07.117Z,11.71
2023-03-31T06:14:33.717Z,11.91
2023-03-31T06:17:00.310Z,12.04
2023-03-31T06:19:26.868Z,12.06
2023-03-31T06:21:53.413Z,12.11
2023-03-31T06:24:19.990Z,12.04
2023-03-31T06:26:46.576Z,12.03
2023-03-31T06:29:13.163Z,12.25
2023-03-31T06:31:39.783Z,12.15
2023-03-31T06:34:06.540Z,12.31
2023-03-31T06:36:33.097Z,11.97
2023-03-31T06:38:59.760Z,11.98
2023-03-31T06:41:26.360Z,12.15
2023-03-31T06:43:53.048Z,11.85
2023-03-31T06:46:19.658Z,12.16
2023-03-31T06:48:46.372Z,12.56
2023-03-31T06:51:13.181Z,13.21
2023-03-31T06:53:39.909Z,13.48
2023-03-31T06:56:06.899Z,13.32
2023-03-31T06:58:33.643Z,13.61
2023-03-31T07:01:00.376Z,13.76
2023-03-31T07:03:27.313Z,14.12
2023-03-31T07:05:53.932Z,14.64
2023-03-31T07:08:20.501Z,14.68
2023-03-31T07:10:47.092Z,14.67
2023-03-31T07:13:13.681Z,14.83
2023-03-31T07:15:40.238Z,14.87
2023-03-31T07:18:06.915Z,14.41
2023-03-31T07:20:33.516Z,15.30
2023-03-31T07:23:00.116Z,15.61
2023-03-31T07:25:26.698Z,15.92
2023-03-31T07:27:53.255Z,15.99
2023-03-31T07:30:19.812Z,16.09
2023-03-31T07:32:46.467Z,16.41
2023-03-31T07:35:14.937Z,16.71
2023-03-31T07:37:41.507Z,16.18
2023-03-31T07:40:08.071Z,16.10
2023-03-31T07:42:34.649Z,15.97
2023-03-31T07:45:01.269Z,16.71
2023-03-31T07:47:27.896Z,17.28
2023-03-31T07:49:54.573Z,17.69
2023-03-31T07:52:21.124Z,17.45
2023-03-31T07:54:47.749Z,17.82
2023-03-31T07:57:14.431Z,17.62
2023-03-31T07:59:41.010Z,18.08
2023-03-31T08:02:07.584Z,18.34
2023-03-31T08:04:34.176Z,18.72
2023-03-31T08:07:01.605Z,19.05
2023-03-31T08:09:28.313Z,18.66
2023-03-31T08:11:54.886Z,18.87
2023-03-31T08:14:30.334Z,18.33
2023-03-31T08:17:04.893Z,18.07
2023-03-31T08:19:31.753Z,18.66
2023-03-31T08:21:58.291Z,18.45
2023-03-31T08:24:24.858Z,18.38
2023-03-31T08:26:51.440Z,18.19
2023-03-31T08:29:18.043Z,18.45
2023-03-31T08:31:44.667Z,18.62
2023-03-31T08:34:11.291Z,19.05
2023-03-31T08:36:37.883Z,18.65
2023-03-31T08:39:04.442Z,19.14
2023-03-31T08:41:31.023Z,18.76
2023-03-31T08:43:57.588Z,18.88
2023-03-31T08:46:24.201Z,19.42
2023-03-31T08:48:50.811Z,19.87
2023-03-31T08:51:17.390Z,19.22
2023-03-31T08:53:43.963Z,19.78
2023-03-31T08:56:10.532Z,19.48
2023-03-31T08:58:37.135Z,19.71
2023-03-31T09:01:03.839Z,19.83
2023-03-31T09:03:30.536Z,20.29
2023-03-31T09:06:00.549Z,20.81
2023-03-31T09:08:27.668Z,20.47
2023-03-31T09:10:54.294Z,18.92
2023-03-31T09:13:20.939Z,18.86
2023-03-31T09:15:47.476Z,19.48
2023-03-31T09:18:14.223Z,20.37
2023-03-31T09:20:40.778Z,20.87
2023-03-31T09:23:07.361Z,20.78
2023-03-31T09:25:33.951Z,20.37
2023-03-31T09:28:00.514Z,20.60
2023-03-31T09:30:27.081Z,21.24
2023-03-31T09:32:53.674Z,21.18
2023-03-31T09:35:20.244Z,20.42
2023-03-31T09:37:46.890Z,20.40
2023-03-31T09:40:13.566Z,20.93
2023-03-31T09:42:40.165Z,20.16
2023-03-31T09:45:06.752Z,20.41
2023-03-31T09:47:33.411Z,20.09
2023-03-31T09:50:00.290Z,20.22
2023-03-31T09:52:27.833Z,20.70
2023-03-31T09:54:54.412Z,21.47
2023-03-31T09:57:21.123Z,21.22
2023-03-31T09:59:47.874Z,21.51
2023-03-31T10:02:14.430Z,21.76
2023-03-31T10:04:41.077Z,21.13
2023-03-31T10:07:07.820Z,21.17
2023-03-31T10:09:34.462Z,21.58
2023-03-31T10:12:01.060Z,21.18
2023-03-31T10:14:27.652Z,20.58
2023-03-31T10:16:54.233Z,20.21
2023-03-31T10:19:20.813Z,20.29
2023-03-31T10:21:47.390Z,21.05
2023-03-31T10:24:13.957Z,21.09
2023-03-31T10:26:40.519Z,21.31
2023-03-31T10:29:07.097Z,19.95
2023-03-31T10:31:33.677Z,19.59
2023-03-31T10:34:00.371Z,20.19
2023-03-31T10:36:26.937Z,20.12
2023-03-31T10:38:53.487Z,19.42
2023-03-31T10:41:20.095Z,19.62
2023-03-31T10:43:46.745Z,20.04
2023-03-31T10:46:13.385Z,20.62
2023-03-31T10:48:39.933Z,21.10
2023-03-31T10:51:06.640Z,21.11
2023-03-31T10:53:33.400Z,21.16
2023-03-31T10:55:59.972Z,21.28
2023-03-31T10:58:26.604Z,21.38
2023-03-31T11:00:53.202Z,21.62
2023-03-31T11:03:20.404Z,21.47
2023-03-31T11:05:47.073Z,21.33
2023-03-31T11:08:13.631Z,21.58
2023-03-31T11:10:40.277Z,22.03
2023-03-31T11:13:06.853Z,22.38
2023-03-31T11:15:33.563Z,22.37
2023-03-31T11:18:00.705Z,21.88
2023-03-31T11:20:28.583Z,22.13
2023-03-31T11:22:56.944Z,22.71
2023-03-31T11:25:23.498Z,23.49
2023-03-31T11:27:50.142Z,23.57
2023-03-31T11:30:16.833Z,22.62
2023-03-31T11:32:43.400Z,22.62
2023-03-31T11:35:09.995Z,22.51
2023-03-31T11:37:36.660Z,22.92
2023-03-31T11:40:03.254Z,23.02
2023-03-31T11:42:29.830Z,23.83
2023-03-31T11:44:56.401Z,23.07
2023-03-31T11:47:22.960Z,22.25
2023-03-31T11:49:49.595Z,21.97
2023-03-31T11:52:16.145Z,22.72
2023-03-31T11:54:42.719Z,22.83
2023-03-31T11:57:09.419Z,23.26
2023-03-31T11:59:36.027Z,23.25
2023-03-31T12:02:02.657Z,24.01
2023-03-31T12:04:29.269Z,23.85
2023-03-31T12:06:55.908Z,24.17
2023-03-31T12:09:22.458Z,24.55
2023-03-31T12:11:49.120Z,23.87
2023-03-31T12:14:15.864Z,24.61
2023-03-31T12:16:42.661Z,24.78
2023-03-31T12:19:09.274Z,23.54
2023-03-31T12:21:35.902Z,24.46
2023-03-31T12:24:02.479Z,25.39
2023-03-31T12:26:29.160Z,25.40
2023-03-31T12:28:55.757Z,25.39
2023-03-31T12:31:22.759Z,25.43
2023-03-31T12:33:49.326Z,24.72
2023-03-31T12:36:16.015Z,25.45
2023-03-31T12:38:42.751Z,26.45
2023-03-31T12:41:09.311Z,26.20
2023-03-31T12:43:35.976Z,24.91
2023-03-31T12:46:02.569Z,24.78
2023-03-31T12:48:29.344Z,24.99
2023-03-31T12:50:55.951Z,25.11
2023-03-31T12:53:22.553Z,25.54
2023-03-31T12:55:49.114Z,26.02
2023-03-31T12:58:15.892Z,26.13
2023-03-31T13:00:42.517Z,24.82
2023-03-31T13:03:09.235Z,25.13
2023-03-31T13:05:35.876Z,25.23
2023-03-31T13:08:02.547Z,24.47
2023-03-31T13:10:29.150Z,23.94
2023-03-31T13:12:55.756Z,22.92
2023-03-31T13:15:22.299Z,23.48
2023-03-31T13:17:48.930Z,24.71
2023-03-31T13:20:15.570Z,25.00
2023-03-31T13:22:42.179Z,24.28
2023-03-31T13:25:08.832Z,24.28
2023-03-31T13:27:35.423Z,23.72
2023-03-31T13:30:02.151Z,23.72
2023-03-31T13:32:28.790Z,24.00
2023-03-31T13:34:55.401Z,23.62
2023-03-31T13:37:22.239Z,23.45
2023-03-31T13:39:48.833Z,23.03
2023-03-31T13:42:15.416Z,23.38
2023-03-31T13:44:41.971Z,23.58
2023-03-31T13:47:08.558Z,23.19
2023-03-31T13:49:35.125Z,23.12
2023-03-31T13:52:01.707Z,22.50
2023-03-31T13:54:28.329Z,22.73
2023-03-31T13:56:54.952Z,22.27
2023-03-31T13:59:21.623Z,22.15
2023-03-31T14:01:48.255Z,22.50
2023-03-31T14:04:14.827Z,22.61
2023-03-31T14:06:41.461Z,22.54
2023-03-31T14:09:08.061Z,22.63
2023-03-31T14:11:34.655Z,22.74
2023-03-31T14:14:01.232Z,21.93
2023-03-31T14:16:27.914Z,22.23
2023-03-31T14:18:54.526Z,22.22
2023-03-31T14:21:21.133Z,22.43
2023-03-31T14:23:47.839Z,22.51
2023-03-31T14:26:14.733Z,22.68
2023-03-31T14:28:42.554Z,22.64
2023-03-31T14:31:09.521Z,22.14
2023-03-31T14:33:36.271Z,22.14
2023-03-31T14:36:02.919Z,22.14
2023-03-31T14:38:29.797Z,22.06
2023-03-31T14:40:56.495Z,22.22
2023-03-31T14:43:23.322Z,22.57
2023-03-31T14:45:49.912Z,22.50
2023-03-31T14:48:16.498Z,22.41
2023-03-31T14:50:43.137Z,22.33
2023-03-31T14:53:09.769Z,22.14
2023-03-31T14:58:05.786Z,22.53
2023-03-31T15:00:32.894Z,22.62
2023-03-31T15:02:59.499Z,22.45
2023-03-31T15:05:26.186Z,22.48
2023-03-31T15:07:52.869Z,22.67
2023-03-31T15:10:19.420Z,22.56
2023-03-31T15:12:46.188Z,22.53
2023-03-31T15:15:12.741Z,22.65
2023-03-31T15:17:39.409Z,22.42
2023-03-31T15:20:05.965Z,22.48
2023-03-31T15:22:32.511Z,22.37
2023-03-31T15:24:59.066Z,21.58
2023-03-31T15:27:34.021Z,21.78
2023-03-31T15:30:03.103Z,21.62
2023-03-31T15:32:29.926Z,21.57
2023-03-31T15:35:02.434Z,21.85
2023-03-31T15:37:34.414Z,21.93
2023-03-31T15:40:00.944Z,21.95
2023-03-31T15:42:27.497Z,21.81
2023-03-31T15:44:54.044Z,21.75
2023-03-31T15:47:20.584Z,21.79
2023-03-31T15:49:47.197Z,21.83
2023-03-31T15:52:13.745Z,21.55
2023-03-31T15:54:42.491Z,21.22
2023-03-31T15:57:09.137Z,21.00
2023-03-31T15:59:51.177Z,20.89
2023-03-31T16:02:21.758Z,20.68
2023-03-31T16:04:48.410Z,20.98
2023-03-31T16:07:14.994Z,21.27
2023-03-31T16:09:41.664Z,21.00
2023-03-31T16:12:08.232Z,20.61
2023-03-31T16:14:34.876Z,20.34
2023-03-31T16:17:04.480Z,20.47
2023-03-31T16:19:31.074Z,20.57
2023-03-31T16:21:57.808Z,20.22
2023-03-31T16:24:24.510Z,19.92
2023-03-31T16:26:51.146Z,19.92
2023-03-31T16:29:17.724Z,19.83
2023-03-31T16:31:44.344Z,20.19
2023-03-31T16:34:11.016Z,20.02
2023-03-31T16:36:37.581Z,20.06
2023-03-31T16:39:04.212Z,20.11
2023-03-31T16:41:30.761Z,19.90
2023-03-31T16:43:57.301Z,19.79
2023-03-31T16:46:23.887Z,18.70
2023-03-31T16:48:50.617Z,18.36
2023-03-31T16:51:17.556Z,17.83
2023-03-31T16:53:44.117Z,17.59
2023-03-31T16:56:10.718Z,17.07
2023-03-31T16:58:37.464Z,16.41
2023-03-31T17:01:04.052Z,16.09
2023-03-31T17:03:30.761Z,16.24
2023-03-31T17:05:59.264Z,16.44
2023-03-31T17:08:26.064Z,16.80
2023-03-31T17:10:52.662Z,16.51
2023-03-31T17:13:19.279Z,16.30
2023-03-31T17:15:45.846Z,16.10
2023-03-31T17:18:12.599Z,15.91
2023-03-31T17:20:39.310Z,16.19
2023-03-31T17:23:05.956Z,16.33
2023-03-31T17:25:32.553Z,16.32
2023-03-31T17:27:59.093Z,16.22
2023-03-31T17:30:25.697Z,16.30
2023-03-31T17:32:52.537Z,16.27
2023-03-31T17:35:19.706Z,16.56
2023-03-31T17:37:48.594Z,16.70
2023-03-31T17:40:15.128Z,16.82
2023-03-31T17:42:41.768Z,16.94
2023-03-31T17:45:08.429Z,17.05
2023-03-31T17:47:35.026Z,16.71
2023-03-31T17:50:01.627Z,16.19
2023-03-31T17:52:28.207Z,16.12
2023-03-31T17:54:54.782Z,16.17
2023-03-31T17:57:21.434Z,16.33
2023-03-31T17:59:48.121Z,16.60
2023-03-31T18:02:14.701Z,16.42
2023-03-31T18:04:41.310Z,16.37
2023-03-31T18:07:07.907Z,16.31
2023-03-31T18:09:34.498Z,16.10
2023-03-31T18:12:01.056Z,15.58
2023-03-31T18:14:27.658Z,15.62
2023-03-31T18:16:54.293Z,15.94
2023-03-31T18:19:20.856Z,15.54
2023-03-31T18:21:47.614Z,15.25
2023-03-31T18:24:14.481Z,15.58
2023-03-31T18:26:41.050Z,15.91
2023-03-31T18:29:07.609Z,15.92
2023-03-31T18:31:34.239Z,15.70
2023-03-31T18:34:00.889Z,15.44
2023-03-31T18:36:28.701Z,15.32
2023-03-31T18:38:55.385Z,15.40
2023-03-31T18:41:21.965Z,15.43
2023-03-31T18:43:48.586Z,14.94
2023-03-31T18:46:15.441Z,15.20
2023-03-31T18:48:43.188Z,15.45
2023-03-31T18:51:09.760Z,15.59
2023-03-31T18:53:37.321Z,15.48
2023-03-31T18:56:03.949Z,15.36
2023-03-31T18:58:30.515Z,15.28
2023-03-31T19:00:57.270Z,15.40
2023-03-31T19:03:24.037Z,15.65
2023-03-31T19:05:50.615Z,15.72
2023-03-31T19:08:17.211Z,14.97
2023-03-31T19:10:43.781Z,14.93
2023-03-31T19:13:10.356Z,14.56
2023-03-31T19:15:36.885Z,14.92
2023-03-31T19:18:03.561Z,15.26
2023-03-31T19:20:30.208Z,15.05
2023-03-31T19:22:56.773Z,14.75
2023-03-31T19:25:23.347Z,14.76
2023-03-31T19:27:49.901Z,14.99
2023-03-31T19:30:16.465Z,15.05
2023-03-31T19:32:43.122Z,14.80
2023-03-31T19:35:10.137Z,14.87
2023-03-31T19:37:36.737Z,15.01
2023-03-31T19:40:03.281Z,15.07
2023-03-31T19:42:30.171Z,15.03
2023-03-31T19:44:56.856Z,15.08
2023-03-31T19:47:23.431Z,15.15
2023-03-31T19:49:50.022Z,15.22
2023-03-31T19:52:16.739Z,15.14
2023-03-31T19:54:43.323Z,15.07
2023-03-31T19:57:09.994Z,15.12
2023-03-31T20:02:20.958Z,15.22
2023-03-31T20:04:47.784Z,15.20
2023-03-31T20:07:15.263Z,15.14
2023-03-31T20:09:41.863Z,15.10
2023-03-31T20:12:08.557Z,14.97
2023-03-31T20:14:35.164Z,15.01
2023-03-31T20:17:01.738Z,14.95
2023-03-31T20:19:28.268Z,14.98
2023-03-31T20:21:54.864Z,15.04
2023-03-31T20:24:21.450Z,15.15
2023-03-31T20:26:48.010Z,15.20
2023-03-31T20:29:14.616Z,14.76
2023-03-31T20:31:41.197Z,14.69
2023-03-31T20:34:07.778Z,14.83
2023-03-31T20:36:34.411Z,14.90
2023-03-31T20:39:00.952Z,14.71
2023-03-31T20:41:27.495Z,14.67
2023-03-31T20:43:54.060Z,14.87
2023-03-31T20:46:20.619Z,14.80
2023-03-31T20:48:47.204Z,14.76
2023-03-31T20:51:13.766Z,14.71
2023-03-31T20:53:40.351Z,14.89
2023-03-31T20:56:06.913Z,14.86
2023-03-31T20:58:33.538Z,14.56
2023-03-31T21:01:00.197Z,14.51
2023-03-31T21:03:26.815Z,14.44
2023-03-31T21:05:54.331Z,14.68
2023-03-31T21:08:20.922Z,14.72
2023-03-31T21:10:47.507Z,14.81
2023-03-31T21:13:15.438Z,14.73
2023-03-31T21:15:41.993Z,14.78
2023-03-31T21:18:08.653Z,14.73
2023-03-31T21:20:35.274Z,14.55
2023-03-31T21:23:01.902Z,14.32
2023-03-31T21:25:28.566Z,14.39
2023-03-31T21:27:55.132Z,14.38
2023-03-31T21:30:21.705Z,14.44
2023-03-31T21:32:48.314Z,14.45
2023-03-31T21:35:15.079Z,14.62
2023-03-31T21:37:41.641Z,14.68
2023-03-31T21:40:08.554Z,14.71
2023-03-31T21:42:35.139Z,14.67
2023-03-31T21:45:01.729Z,14.57
2023-03-31T21:47:28.362Z,14.35
2023-03-31T21:49:54.912Z,14.46
2023-03-31T21:52:21.753Z,14.42
2023-03-31T21:54:50.601Z,14.45
2023-03-31T21:57:17.277Z,14.45
2023-03-31T21:59:43.938Z,14.46
2023-03-31T22:02:10.633Z,14.39
2023-03-31T22:04:37.258Z,14.33
2023-03-31T22:07:03.840Z,14.52
2023-03-31T22:09:30.459Z,14.48
2023-03-31T22:11:57.046Z,14.40
2023-03-31T22:14:23.606Z,14.54
2023-03-31T22:16:50.249Z,14.37
2023-03-31T22:19:17.186Z,14.32
2023-03-31T22:21:44.031Z,14.32
2023-03-31T22:24:10.667Z,14.35
2023-03-31T22:26:37.234Z,14.29
2023-03-31T22:29:03.821Z,14.39
2023-03-31T22:31:30.451Z,14.36
2023-03-31T22:33:57.107Z,14.36
2023-03-31T22:36:23.752Z,14.19
2023-03-31T22:38:50.358Z,14.31
2023-03-31T22:41:16.950Z,14.35
2023-03-31T22:43:45.871Z,14.12
2023-03-31T22:46:12.924Z,14.23
2023-03-31T22:48:39.545Z,14.22
2023-03-31T22:51:06.117Z,13.94
2023-03-31T22:53:32.689Z,14.01
2023-03-31T22:55:59.364Z,13.95
2023-03-31T22:58:25.909Z,13.91
2023-03-31T23:00:52.528Z,13.90
2023-03-31T23:03:19.197Z,13.92
2023-03-31T23:05:45.832Z,14.12
2023-03-31T23:08:12.400Z,13.96
2023-03-31T23:10:38.970Z,14.16
2023-03-31T23:13:05.536Z,14.06
2023-03-31T23:15:32.404Z,14.16
2023-03-31T23:17:59.597Z,14.01
2023-03-31T23:20:26.209Z,14.07
2023-03-31T23:22:52.763Z,14.09
2023-03-31T23:25:19.342Z,14.11
2023-03-31T23:27:45.942Z,13.95
2023-03-31T23:30:12.591Z,14.05
2023-03-31T23:32:39.189Z,13.81
2023-03-31T23:35:05.780Z,14.03
2023-03-31T23:37:32.431Z,14.03
2023-03-31T23:39:59.141Z,13.96
2023-03-31T23:42:25.891Z,13.58
2023-03-31T23:44:52.441Z,13.45
2023-03-31T23:47:19.004Z,13.66
2023-03-31T23:49:45.626Z,13.85
2023-03-31T23:52:12.193Z,13.65
2023-03-31T23:54:38.748Z,13.68
2023-03-31T23:57:05.453Z,13.71
2023-03-31T23:59:32.073Z,13.65
